Time;durP1;ratioP1;P1;durP2;ratioP2;P2;SDS_P1;SDS_P2;PMS_P1;PMS_P2;Temp;Humidity;BMP_temperature;BMP_pressure;BME280_temperature;BME280_humidity;BME280_pressure;Samples;Min_cycle;Max_cycle;Signal;HPM_P1;HPM_P2
2024/04/06 00:01:08;;;;;;;;;;;15.00;99.90;;;;;;4911449;29;19926;-64
2024/04/06 00:03:34;;;;;;;;;;;14.90;99.90;;;;;;4919859;29;19981;-64
2024/04/06 00:06:00;;;;;;;;;;;14.90;99.90;;;;;;4921697;29;19927;-64
2024/04/06 00:08:26;;;;;;;;;;;14.80;99.90;;;;;;4931849;29;19931;-64
2024/04/06 00:10:52;;;;;;;;;;;14.80;99.90;;;;;;4928359;29;20026;-64
2024/04/06 00:13:18;;;;;;;;;;;14.80;99.90;;;;;;4919835;29;19931;-64
2024/04/06 00:15:44;;;;;;;;;;;14.80;99.90;;;;;;4911335;29;19975;-65
2024/04/06 00:18:10;;;;;;;;;;;14.80;99.90;;;;;;4915435;29;19927;-65
2024/04/06 00:20:37;;;;;;;;;;;14.80;99.90;;;;;;4931991;29;20021;-65
2024/04/06 00:23:03;;;;;;;;;;;14.70;99.90;;;;;;4908404;29;19934;-64
2024/04/06 00:25:29;;;;;;;;;;;14.70;99.90;;;;;;4913693;29;19986;-65
2024/04/06 00:27:55;;;;;;;;;;;14.60;99.90;;;;;;4911437;29;19982;-64
2024/04/06 00:30:21;;;;;;;;;;;14.60;99.90;;;;;;4919630;29;19930;-64
2024/04/06 00:32:47;;;;;;;;;;;14.60;99.90;;;;;;4929075;29;19982;-64
2024/04/06 00:35:15;;;;;;;;;;;14.60;99.90;;;;;;4902641;29;20447;-64
2024/04/06 00:37:41;;;;;;;;;;;14.60;99.90;;;;;;4927694;29;19934;-64
2024/04/06 00:40:07;;;;;;;;;;;14.60;99.90;;;;;;4911997;29;19931;-64
2024/04/06 00:42:33;;;;;;;;;;;14.60;99.90;;;;;;4920273;29;20013;-64
2024/04/06 00:44:59;;;;;;;;;;;14.50;99.90;;;;;;4902779;29;19935;-64
2024/04/06 00:47:25;;;;;;;;;;;14.50;99.90;;;;;;4923654;29;19978;-64
2024/04/06 00:49:51;;;;;;;;;;;14.50;99.90;;;;;;4919808;29;20374;-64
2024/04/06 00:52:17;;;;;;;;;;;14.50;99.90;;;;;;4919577;29;20001;-65
2024/04/06 00:54:43;;;;;;;;;;;14.40;99.90;;;;;;4920901;29;19931;-64
2024/04/06 00:57:09;;;;;;;;;;;14.40;99.90;;;;;;4922993;29;20017;-64
2024/04/06 00:59:35;;;;;;;;;;;14.30;99.90;;;;;;4913347;29;19958;-64
2024/04/06 01:02:01;;;;;;;;;;;14.30;99.90;;;;;;4918050;29;19982;-64
2024/04/06 01:04:28;;;;;;;;;;;14.30;99.90;;;;;;4939168;29;19927;-64
2024/04/06 01:06:54;;;;;;;;;;;14.20;99.90;;;;;;4923055;29;19981;-65
2024/04/06 01:09:20;;;;;;;;;;;14.20;99.90;;;;;;4917610;29;20009;-64
2024/04/06 01:11:47;;;;;;;;;;;14.10;99.90;;;;;;4931422;29;19973;-64
2024/04/06 01:14:13;;;;;;;;;;;14.10;99.90;;;;;;4928963;29;19930;-64
2024/04/06 01:16:39;;;;;;;;;;;14.00;99.90;;;;;;4925068;29;20423;-64
2024/04/06 01:19:04;;;;;;;;;;;14.00;99.90;;;;;;4900751;29;20060;-64
2024/04/06 01:21:30;;;;;;;;;;;14.00;99.90;;;;;;4903439;29;19939;-65
2024/04/06 01:23:56;;;;;;;;;;;14.00;99.90;;;;;;4922046;29;20403;-64
2024/04/06 01:26:22;;;;;;;;;;;14.10;99.90;;;;;;4901534;29;19927;-64
2024/04/06 01:28:49;;;;;;;;;;;14.20;99.90;;;;;;4926679;29;20292;-64
2024/04/06 01:31:15;;;;;;;;;;;14.30;99.90;;;;;;4918669;29;19954;-64
2024/04/06 01:33:40;;;;;;;;;;;14.30;99.90;;;;;;4911242;29;20398;-64
2024/04/06 01:36:07;;;;;;;;;;;14.30;99.90;;;;;;4928047;29;19938;-64
2024/04/06 01:38:33;;;;;;;;;;;14.30;99.90;;;;;;4908580;29;20021;-64
2024/04/06 01:40:59;;;;;;;;;;;14.30;99.90;;;;;;4918289;29;19933;-64
2024/04/06 01:43:25;;;;;;;;;;;14.20;99.90;;;;;;4918073;29;20395;-64
2024/04/06 01:45:51;;;;;;;;;;;14.10;99.90;;;;;;4925453;29;19999;-64
2024/04/06 01:48:17;;;;;;;;;;;14.00;99.90;;;;;;4906141;29;20383;-64
2024/04/06 01:50:43;;;;;;;;;;;13.90;99.90;;;;;;4914957;29;19927;-65
2024/04/06 01:53:09;;;;;;;;;;;13.90;99.90;;;;;;4919414;29;19942;-64
2024/04/06 01:55:35;;;;;;;;;;;13.80;99.90;;;;;;4923105;29;20124;-65
2024/04/06 01:58:00;;;;;;;;;;;13.70;99.90;;;;;;4913326;29;19978;-64
2024/04/06 02:00:26;;;;;;;;;;;13.70;99.90;;;;;;4918246;29;19927;-64
2024/04/06 02:02:53;;;;;;;;;;;13.60;99.90;;;;;;4927906;29;20356;-64
2024/04/06 02:05:19;;;;;;;;;;;13.60;99.90;;;;;;4917447;29;19934;-64
2024/04/06 02:07:45;;;;;;;;;;;13.50;99.90;;;;;;4915483;29;19927;-64
2024/04/06 02:10:11;;;;;;;;;;;13.40;99.90;;;;;;4929032;29;19931;-64
2024/04/06 02:12:37;;;;;;;;;;;13.30;99.90;;;;;;4911391;29;19931;-64
2024/04/06 02:15:03;;;;;;;;;;;13.30;99.90;;;;;;4924462;29;19930;-64
2024/04/06 02:17:29;;;;;;;;;;;13.20;99.90;;;;;;4924121;29;20428;-64
2024/04/06 02:19:55;;;;;;;;;;;13.10;99.90;;;;;;4912584;29;19930;-64
2024/04/06 02:22:21;;;;;;;;;;;13.00;99.90;;;;;;4911458;29;19926;-64
2024/04/06 02:24:47;;;;;;;;;;;13.00;99.90;;;;;;4927397;29;19930;-64
2024/04/06 02:27:13;;;;;;;;;;;12.90;99.90;;;;;;4904346;29;19931;-64
2024/04/06 02:29:39;;;;;;;;;;;12.90;99.90;;;;;;4916454;29;19981;-64
2024/04/06 02:32:05;;;;;;;;;;;12.90;99.90;;;;;;4912837;29;19931;-64
2024/04/06 02:34:33;;;;;;;;;;;12.80;99.90;;;;;;4934673;29;19935;-64
2024/04/06 02:36:59;;;;;;;;;;;12.80;99.90;;;;;;4919533;29;19938;-64
2024/04/06 02:39:25;;;;;;;;;;;12.80;99.90;;;;;;4921719;29;19935;-64
2024/04/06 02:41:51;;;;;;;;;;;12.80;99.90;;;;;;4904399;29;19926;-64
2024/04/06 02:44:17;;;;;;;;;;;12.80;99.90;;;;;;4923294;29;19935;-64
2024/04/06 02:46:44;;;;;;;;;;;12.80;99.90;;;;;;4924391;29;19927;-65
2024/04/06 02:49:10;;;;;;;;;;;12.70;99.90;;;;;;4925001;29;19931;-64
2024/04/06 02:51:35;;;;;;;;;;;12.60;99.90;;;;;;4921915;29;19938;-64
2024/04/06 02:54:01;;;;;;;;;;;12.50;99.90;;;;;;4911705;29;19926;-64
2024/04/06 02:56:27;;;;;;;;;;;12.50;99.90;;;;;;4920725;29;20414;-64
2024/04/06 02:58:53;;;;;;;;;;;12.40;99.90;;;;;;4925968;29;20415;-65
2024/04/06 03:01:19;;;;;;;;;;;12.40;99.90;;;;;;4905256;29;19935;-65
2024/04/06 03:03:45;;;;;;;;;;;12.40;99.90;;;;;;4922986;29;19931;-64
2024/04/06 03:06:11;;;;;;;;;;;12.30;99.90;;;;;;4921574;29;19966;-65
2024/04/06 03:08:37;;;;;;;;;;;12.30;99.90;;;;;;4931781;29;19927;-64
2024/04/06 03:11:02;;;;;;;;;;;12.30;99.90;;;;;;4919497;29;19979;-64
2024/04/06 03:13:28;;;;;;;;;;;12.30;99.90;;;;;;4918027;29;20555;-64
2024/04/06 03:15:54;;;;;;;;;;;12.20;99.90;;;;;;4919447;29;20311;-64
2024/04/06 03:18:20;;;;;;;;;;;12.20;99.90;;;;;;4912406;29;19959;-64
2024/04/06 03:20:46;;;;;;;;;;;12.20;99.90;;;;;;4904553;29;19927;-64
2024/04/06 03:23:13;;;;;;;;;;;12.20;99.90;;;;;;4919966;29;19931;-64
2024/04/06 03:25:39;;;;;;;;;;;12.20;99.90;;;;;;4919571;29;19931;-64
2024/04/06 03:28:04;;;;;;;;;;;12.20;99.90;;;;;;4903742;29;20506;-64
2024/04/06 03:30:30;;;;;;;;;;;12.20;99.90;;;;;;4917156;29;19931;-64
2024/04/06 03:32:56;;;;;;;;;;;12.20;99.90;;;;;;4920633;29;20359;-64
2024/04/06 03:35:22;;;;;;;;;;;12.10;99.90;;;;;;4904998;29;19926;-65
2024/04/06 03:37:48;;;;;;;;;;;12.10;99.90;;;;;;4910104;29;19927;-64
2024/04/06 03:40:15;;;;;;;;;;;12.10;99.90;;;;;;4922523;29;20418;-64
2024/04/06 03:42:41;;;;;;;;;;;12.00;99.90;;;;;;4919929;29;20303;-64
2024/04/06 03:45:10;;;;;;;;;;;12.00;99.90;;;;;;4927111;29;19934;-64
2024/04/06 03:47:39;;;;;;;;;;;11.90;99.90;;;;;;4903715;29;19927;-64
2024/04/06 03:50:05;;;;;;;;;;;11.80;99.90;;;;;;4920299;29;20356;-65
2024/04/06 03:52:31;;;;;;;;;;;11.70;99.90;;;;;;4904288;29;19977;-64
2024/04/06 03:54:57;;;;;;;;;;;11.70;99.90;;;;;;4912945;29;20022;-64
2024/04/06 03:57:23;;;;;;;;;;;11.70;99.90;;;;;;4930221;29;19935;-64
2024/04/06 03:59:48;;;;;;;;;;;11.60;99.90;;;;;;4920461;29;19926;-64
2024/04/06 04:02:15;;;;;;;;;;;11.60;99.90;;;;;;4907483;29;19937;-64
2024/04/06 04:04:42;;;;;;;;;;;11.60;99.90;;;;;;4907118;29;19939;-64
2024/04/06 04:07:08;;;;;;;;;;;11.60;99.90;;;;;;4902806;29;19927;-64
2024/04/06 04:09:34;;;;;;;;;;;11.60;99.90;;;;;;4913918;29;19969;-64
2024/04/06 04:12:00;;;;;;;;;;;11.60;99.90;;;;;;4903686;29;19927;-64
2024/04/06 04:14:26;;;;;;;;;;;11.70;99.90;;;;;;4930647;29;19990;-65
2024/04/06 04:16:52;;;;;;;;;;;11.60;99.90;;;;;;4927307;29;20490;-69
2024/04/06 04:19:18;;;;;;;;;;;11.70;99.90;;;;;;4904813;29;19985;-64
2024/04/06 04:21:44;;;;;;;;;;;11.70;99.90;;;;;;4926259;29;20444;-65
2024/04/06 04:24:10;;;;;;;;;;;11.70;99.90;;;;;;4918638;29;19931;-65
2024/04/06 04:26:37;;;;;;;;;;;11.70;99.90;;;;;;4926296;29;20399;-65
2024/04/06 04:29:03;;;;;;;;;;;11.70;99.90;;;;;;4921484;29;20027;-64
2024/04/06 04:31:29;;;;;;;;;;;11.70;99.90;;;;;;4901772;29;19931;-65
2024/04/06 04:33:55;;;;;;;;;;;11.70;99.90;;;;;;4910499;29;19931;-64
2024/04/06 04:36:21;;;;;;;;;;;11.70;99.90;;;;;;4917072;29;19926;-65
2024/04/06 04:38:47;;;;;;;;;;;11.70;99.90;;;;;;4919803;29;19930;-65
2024/04/06 04:41:13;;;;;;;;;;;11.70;99.90;;;;;;4899855;29;19931;-64
2024/04/06 04:43:38;;;;;;;;;;;11.60;99.90;;;;;;4918077;29;19934;-64
2024/04/06 04:46:04;;;;;;;;;;;11.60;99.90;;;;;;4902349;29;19927;-64
2024/04/06 04:48:49;;;;;;;;;;;11.50;99.90;;;;;;4922562;29;19934;-64
2024/04/06 04:51:15;;;;;;;;;;;11.50;99.90;;;;;;4921150;29;20439;-64
2024/04/06 04:53:41;;;;;;;;;;;11.40;99.90;;;;;;4919020;29;20443;-64
2024/04/06 04:56:07;;;;;;;;;;;11.40;99.90;;;;;;4906995;29;19928;-64
2024/04/06 04:58:33;;;;;;;;;;;11.30;99.90;;;;;;4920658;29;19927;-64
2024/04/06 05:00:58;;;;;;;;;;;11.20;99.90;;;;;;4916153;29;19926;-64
2024/04/06 05:03:24;;;;;;;;;;;11.30;99.90;;;;;;4917445;29;19938;-65
2024/04/06 05:05:53;;;;;;;;;;;11.40;99.90;;;;;;4915704;29;20616;-65
2024/04/06 05:08:18;;;;;;;;;;;11.60;99.90;;;;;;4911252;29;19927;-64
2024/04/06 05:10:45;;;;;;;;;;;11.70;99.90;;;;;;4917143;29;20026;-64
2024/04/06 05:13:11;;;;;;;;;;;11.70;99.90;;;;;;4917380;29;19931;-65
2024/04/06 05:15:36;;;;;;;;;;;11.70;99.90;;;;;;4917658;29;20410;-64
2024/04/06 05:18:02;;;;;;;;;;;11.60;99.90;;;;;;4931592;29;20801;-64
2024/04/06 05:20:28;;;;;;;;;;;11.60;99.90;;;;;;4920348;29;19931;-64
2024/04/06 05:22:54;;;;;;;;;;;11.60;99.90;;;;;;4917282;29;19974;-64
2024/04/06 05:25:20;;;;;;;;;;;11.60;99.90;;;;;;4901234;29;19931;-65
2024/04/06 05:27:46;;;;;;;;;;;11.70;99.90;;;;;;4919167;29;20342;-64
2024/04/06 05:30:12;;;;;;;;;;;11.70;99.90;;;;;;4929543;29;19931;-65
2024/04/06 05:32:38;;;;;;;;;;;11.70;99.90;;;;;;4909522;29;20410;-64
2024/04/06 05:35:06;;;;;;;;;;;11.80;99.90;;;;;;4899549;29;19932;-64
2024/04/06 05:37:31;;;;;;;;;;;11.80;99.90;;;;;;4916687;29;19942;-65
2024/04/06 05:39:57;;;;;;;;;;;11.70;99.90;;;;;;4918834;29;19990;-67
2024/04/06 05:42:24;;;;;;;;;;;11.70;99.90;;;;;;4919504;29;19982;-66
2024/04/06 05:44:49;;;;;;;;;;;11.80;99.90;;;;;;4918415;29;19978;-63
2024/04/06 05:47:15;;;;;;;;;;;11.80;99.90;;;;;;4904015;29;19926;-65
2024/04/06 05:49:41;;;;;;;;;;;11.80;99.90;;;;;;4917502;29;19934;-65
2024/04/06 05:52:07;;;;;;;;;;;11.80;99.90;;;;;;4926660;29;19928;-64
2024/04/06 05:54:32;;;;;;;;;;;11.80;99.90;;;;;;4906965;29;19938;-64
2024/04/06 05:56:59;;;;;;;;;;;11.90;99.90;;;;;;4927993;29;20388;-64
2024/04/06 05:59:24;;;;;;;;;;;12.00;99.90;;;;;;4919871;29;19937;-65
2024/04/06 06:01:51;;;;;;;;;;;12.00;99.90;;;;;;4916572;29;19935;-64
2024/04/06 06:04:17;;;;;;;;;;;12.00;99.90;;;;;;4900162;29;19931;-65
2024/04/06 06:06:43;;;;;;;;;;;12.00;99.90;;;;;;4916297;29;19931;-65
2024/04/06 06:09:09;;;;;;;;;;;12.00;99.90;;;;;;4919885;29;19927;-65
2024/04/06 06:11:35;;;;;;;;;;;12.00;99.90;;;;;;4920150;29;19931;-65
2024/04/06 06:14:01;;;;;;;;;;;12.00;99.90;;;;;;4926717;29;20417;-65
2024/04/06 06:16:27;;;;;;;;;;;12.10;99.90;;;;;;4923328;29;19927;-64
2024/04/06 06:18:53;;;;;;;;;;;12.10;99.90;;;;;;4916453;29;19927;-65
2024/04/06 06:21:19;;;;;;;;;;;12.20;99.90;;;;;;4902952;29;20002;-64
2024/04/06 06:23:45;;;;;;;;;;;12.20;99.90;;;;;;4917935;29;19986;-64
2024/04/06 06:26:11;;;;;;;;;;;12.30;99.90;;;;;;4907701;29;19931;-65
2024/04/06 06:28:37;;;;;;;;;;;12.30;99.90;;;;;;4929503;29;19938;-64
2024/04/06 06:31:04;;;;;;;;;;;12.20;99.90;;;;;;4910909;29;20480;-65
2024/04/06 06:33:29;;;;;;;;;;;12.20;99.90;;;;;;4902002;29;19931;-64
2024/04/06 06:35:55;;;;;;;;;;;12.20;99.90;;;;;;4921802;29;19942;-64
2024/04/06 06:38:21;;;;;;;;;;;12.30;99.90;;;;;;4917429;29;19935;-64
2024/04/06 06:40:48;;;;;;;;;;;12.30;99.90;;;;;;4925516;29;19966;-65
2024/04/06 06:43:14;;;;;;;;;;;12.40;99.90;;;;;;4913633;29;19931;-65
2024/04/06 06:45:40;;;;;;;;;;;12.40;99.90;;;;;;4922471;29;19934;-64
2024/04/06 06:48:06;;;;;;;;;;;12.50;99.90;;;;;;4914226;29;19967;-64
2024/04/06 06:50:32;;;;;;;;;;;12.50;99.90;;;;;;4910053;29;19931;-64
2024/04/06 06:52:58;;;;;;;;;;;12.60;99.90;;;;;;4899155;29;20383;-65
2024/04/06 06:55:24;;;;;;;;;;;12.60;99.90;;;;;;4927433;29;19935;-64
2024/04/06 06:57:50;;;;;;;;;;;12.80;99.90;;;;;;4901705;29;19957;-64
2024/04/06 07:00:16;;;;;;;;;;;12.90;99.90;;;;;;4915984;29;19931;-64
2024/04/06 07:02:42;;;;;;;;;;;13.10;99.90;;;;;;4902907;29;19957;-64
2024/04/06 07:05:08;;;;;;;;;;;13.20;99.90;;;;;;4904791;29;19927;-64
2024/04/06 07:07:34;;;;;;;;;;;13.20;99.90;;;;;;4927834;29;20306;-64
2024/04/06 07:10:00;;;;;;;;;;;13.30;99.90;;;;;;4930604;29;19927;-64
2024/04/06 07:12:26;;;;;;;;;;;13.40;99.90;;;;;;4918339;29;20370;-64
2024/04/06 07:14:52;;;;;;;;;;;13.50;99.90;;;;;;4945392;29;19933;-64
2024/04/06 07:17:19;;;;;;;;;;;13.60;99.90;;;;;;4919343;29;19927;-64
2024/04/06 07:19:44;;;;;;;;;;;13.80;99.90;;;;;;4913348;29;19977;-64
2024/04/06 07:22:10;;;;;;;;;;;14.00;99.90;;;;;;4917843;29;19931;-65
2024/04/06 07:24:36;;;;;;;;;;;14.20;99.90;;;;;;4904584;29;19933;-64
2024/04/06 07:27:02;;;;;;;;;;;14.50;99.90;;;;;;4920791;29;20075;-64
2024/04/06 07:29:28;;;;;;;;;;;14.60;99.90;;;;;;4920548;29;19938;-64
2024/04/06 07:31:54;;;;;;;;;;;14.90;99.90;;;;;;4912220;29;20046;-64
2024/04/06 07:34:20;;;;;;;;;;;15.30;99.90;;;;;;4906432;29;20482;-66
2024/04/06 07:36:46;;;;;;;;;;;15.40;99.90;;;;;;4921919;29;19934;-67
2024/04/06 07:39:12;;;;;;;;;;;15.60;99.90;;;;;;4917524;29;19931;-64
2024/04/06 07:41:38;;;;;;;;;;;15.80;99.90;;;;;;4911553;29;19935;-64
2024/04/06 07:44:04;;;;;;;;;;;15.90;99.90;;;;;;4931526;29;19927;-64
2024/04/06 07:46:30;;;;;;;;;;;16.10;99.90;;;;;;4918722;29;19957;-64
2024/04/06 07:48:56;;;;;;;;;;;16.20;99.90;;;;;;4907586;29;20395;-64
2024/04/06 07:51:22;;;;;;;;;;;16.40;99.90;;;;;;4930980;29;19931;-64
2024/04/06 07:53:48;;;;;;;;;;;16.50;99.90;;;;;;4905153;29;19927;-64
2024/04/06 07:56:14;;;;;;;;;;;16.70;99.90;;;;;;4921552;29;19983;-64
2024/04/06 07:58:40;;;;;;;;;;;17.00;99.90;;;;;;4925273;29;19995;-64
2024/04/06 08:01:06;;;;;;;;;;;17.20;99.90;;;;;;4903350;29;19931;-65
2024/04/06 08:03:32;;;;;;;;;;;17.40;99.90;;;;;;4914537;29;20364;-64
2024/04/06 08:06:01;;;;;;;;;;;17.50;99.90;;;;;;4919251;29;19934;-64
2024/04/06 08:08:27;;;;;;;;;;;17.60;99.90;;;;;;4912646;29;19927;-64
2024/04/06 08:10:53;;;;;;;;;;;17.70;99.90;;;;;;4920145;29;20359;-64
2024/04/06 08:13:19;;;;;;;;;;;17.70;99.90;;;;;;4930621;29;19931;-65
2024/04/06 08:15:45;;;;;;;;;;;17.80;99.90;;;;;;4930211;29;20061;-64
2024/04/06 08:18:11;;;;;;;;;;;17.90;99.90;;;;;;4925629;29;19958;-64
2024/04/06 08:20:36;;;;;;;;;;;18.00;99.90;;;;;;4905474;29;19935;-64
2024/04/06 08:23:02;;;;;;;;;;;18.10;99.90;;;;;;4920207;29;20315;-64
2024/04/06 08:25:28;;;;;;;;;;;18.20;99.90;;;;;;4905864;29;19927;-64
2024/04/06 08:27:54;;;;;;;;;;;18.30;99.90;;;;;;4920138;29;19927;-64
2024/04/06 08:30:20;;;;;;;;;;;18.40;99.90;;;;;;4929174;29;19998;-64
2024/04/06 08:32:54;;;;;;;;;;;18.40;99.90;;;;;;4931057;29;20018;-64
2024/04/06 08:35:20;;;;;;;;;;;18.50;99.90;;;;;;4930647;29;20576;-65
2024/04/06 08:37:46;;;;;;;;;;;18.60;99.90;;;;;;4928178;29;20732;-64
2024/04/06 08:40:13;;;;;;;;;;;18.70;99.90;;;;;;4909890;29;20026;-64
2024/04/06 08:42:40;;;;;;;;;;;18.80;99.90;;;;;;4916191;29;20360;-64
2024/04/06 08:45:07;;;;;;;;;;;18.90;99.90;;;;;;4918394;29;19935;-64
2024/04/06 08:47:33;;;;;;;;;;;19.00;99.90;;;;;;4918902;29;20463;-64
2024/04/06 08:50:00;;;;;;;;;;;19.00;99.90;;;;;;4934432;29;19982;-64
2024/04/06 08:52:26;;;;;;;;;;;19.00;99.90;;;;;;4920512;29;19977;-65
2024/04/06 08:54:52;;;;;;;;;;;19.10;99.90;;;;;;4919091;29;19931;-64
2024/04/06 08:57:18;;;;;;;;;;;19.10;99.90;;;;;;4934725;29;19934;-64
2024/04/06 08:59:44;;;;;;;;;;;19.20;99.90;;;;;;4911676;29;20327;-64
2024/04/06 09:02:10;;;;;;;;;;;19.20;99.90;;;;;;4929292;29;19931;-63
2024/04/06 09:04:36;;;;;;;;;;;19.20;99.90;;;;;;4909797;29;20429;-64
2024/04/06 09:07:02;;;;;;;;;;;19.20;99.90;;;;;;4910186;29;20302;-64
2024/04/06 09:09:28;;;;;;;;;;;19.30;99.90;;;;;;4926136;29;19934;-64
2024/04/06 09:11:54;;;;;;;;;;;19.30;99.90;;;;;;4920571;29;19934;-64
2024/04/06 09:14:20;;;;;;;;;;;19.40;99.90;;;;;;4906386;29;19934;-66
2024/04/06 09:16:46;;;;;;;;;;;19.40;99.90;;;;;;4921916;29;19931;-66
2024/04/06 09:19:11;;;;;;;;;;;19.50;99.90;;;;;;4922197;29;19974;-67
2024/04/06 09:21:37;;;;;;;;;;;19.50;99.90;;;;;;4921289;29;19927;-63
2024/04/06 09:24:04;;;;;;;;;;;19.60;99.90;;;;;;4919933;29;19927;-64
2024/04/06 09:26:36;;;;;;;;;;;19.70;99.90;;;;;;4916679;29;19931;-64
2024/04/06 09:29:02;;;;;;;;;;;19.70;99.90;;;;;;4930571;29;19934;-64
2024/04/06 09:31:28;;;;;;;;;;;19.80;99.90;;;;;;4912404;29;19986;-63
2024/04/06 09:33:58;;;;;;;;;;;19.90;99.90;;;;;;4901584;29;19956;-64
2024/04/06 09:36:24;;;;;;;;;;;20.00;99.90;;;;;;4899078;29;19931;-64
2024/04/06 09:38:51;;;;;;;;;;;20.10;99.90;;;;;;4931683;29;19930;-64
2024/04/06 09:41:18;;;;;;;;;;;20.20;99.90;;;;;;4920643;29;20458;-63
2024/04/06 09:43:45;;;;;;;;;;;20.30;99.90;;;;;;4930187;29;20029;-64
2024/04/06 09:46:11;;;;;;;;;;;20.40;99.90;;;;;;4932964;29;19934;-64
2024/04/06 09:48:41;;;;;;;;;;;20.50;99.90;;;;;;4925149;29;19938;-64
2024/04/06 09:51:07;;;;;;;;;;;20.50;99.90;;;;;;4918534;29;19931;-64
2024/04/06 09:53:34;;;;;;;;;;;20.60;99.90;;;;;;4919059;29;19927;-64
2024/04/06 09:56:01;;;;;;;;;;;20.70;99.90;;;;;;4917458;29;19947;-63
2024/04/06 09:58:28;;;;;;;;;;;20.70;99.90;;;;;;4925583;29;19934;-63
2024/04/06 10:01:06;;;;;;;;;;;20.90;99.90;;;;;;4922950;29;19930;-64
2024/04/06 10:03:33;;;;;;;;;;;21.00;99.90;;;;;;4910856;29;19927;-64
2024/04/06 10:06:14;;;;;;;;;;;21.10;99.90;;;;;;4916019;29;19927;-64
2024/04/06 10:08:46;;;;;;;;;;;21.20;99.90;;;;;;4928541;29;19939;-64
2024/04/06 10:11:15;;;;;;;;;;;21.30;99.90;;;;;;4917713;29;19927;-64
2024/04/06 10:13:42;;;;;;;;;;;21.30;99.90;;;;;;4899158;29;19927;-64
2024/04/06 10:16:08;;;;;;;;;;;21.30;99.90;;;;;;4918134;29;19934;-64
2024/04/06 10:18:34;;;;;;;;;;;21.40;99.90;;;;;;4931397;29;19935;-64
2024/04/06 10:21:09;;;;;;;;;;;21.40;99.90;;;;;;4916304;29;19931;-65
2024/04/06 10:23:37;;;;;;;;;;;21.40;99.90;;;;;;4918156;29;19933;-64
2024/04/06 10:26:03;;;;;;;;;;;21.40;99.90;;;;;;4917659;29;20304;-64
2024/04/06 10:28:29;;;;;;;;;;;21.50;99.90;;;;;;4930750;29;19935;-64
2024/04/06 10:30:55;;;;;;;;;;;21.50;99.90;;;;;;4918819;29;20462;-63
2024/04/06 10:33:21;;;;;;;;;;;21.60;99.90;;;;;;4909397;29;19966;-64
2024/04/06 10:35:48;;;;;;;;;;;21.60;99.90;;;;;;4924995;29;20107;-64
2024/04/06 10:38:14;;;;;;;;;;;21.70;99.90;;;;;;4921522;29;20044;-63
2024/04/06 10:40:40;;;;;;;;;;;21.80;99.90;;;;;;4928497;29;20427;-64
2024/04/06 10:43:08;;;;;;;;;;;21.90;99.90;;;;;;4921483;29;19935;-64
2024/04/06 10:45:34;;;;;;;;;;;22.00;99.90;;;;;;4922688;29;20060;-64
2024/04/06 10:48:01;;;;;;;;;;;22.10;99.90;;;;;;4920433;29;20411;-63
2024/04/06 10:50:27;;;;;;;;;;;22.10;99.90;;;;;;4933553;29;20414;-63
2024/04/06 10:52:53;;;;;;;;;;;22.20;99.90;;;;;;4910831;29;19931;-64
2024/04/06 10:55:20;;;;;;;;;;;22.40;99.90;;;;;;4919849;29;19955;-63
2024/04/06 10:57:46;;;;;;;;;;;22.50;99.90;;;;;;4928946;29;20427;-63
2024/04/06 11:00:13;;;;;;;;;;;22.50;99.90;;;;;;4928891;29;19927;-64
2024/04/06 11:02:39;;;;;;;;;;;22.50;99.90;;;;;;4926474;29;19926;-63
2024/04/06 11:05:06;;;;;;;;;;;22.60;99.90;;;;;;4922562;29;20384;-64
2024/04/06 11:07:32;;;;;;;;;;;22.70;99.90;;;;;;4919605;29;19931;-64
2024/04/06 11:09:58;;;;;;;;;;;22.80;99.90;;;;;;4928002;29;19979;-63
2024/04/06 11:12:28;;;;;;;;;;;22.80;99.90;;;;;;4920221;29;20348;-63
2024/04/06 11:14:54;;;;;;;;;;;22.90;99.90;;;;;;4933820;29;19938;-63
2024/04/06 11:17:19;;;;;;;;;;;23.00;99.90;;;;;;4935682;29;20034;-63
2024/04/06 11:19:51;;;;;;;;;;;23.00;99.90;;;;;;4920540;29;19935;-64
2024/04/06 11:22:17;;;;;;;;;;;23.10;99.60;;;;;;4917981;29;19933;-63
2024/04/06 11:24:44;;;;;;;;;;;23.20;99.70;;;;;;4935869;29;19970;-63
2024/04/06 11:27:09;;;;;;;;;;;23.30;99.90;;;;;;4906461;29;20414;-63
2024/04/06 11:29:35;;;;;;;;;;;23.30;99.00;;;;;;4924856;29;20414;-63
2024/04/06 11:32:01;;;;;;;;;;;23.40;97.00;;;;;;4927318;29;19927;-63
2024/04/06 11:34:27;;;;;;;;;;;23.50;92.50;;;;;;4927403;29;19931;-63
2024/04/06 11:36:53;;;;;;;;;;;23.70;94.30;;;;;;4919374;29;20089;-63
2024/04/06 11:39:19;;;;;;;;;;;23.80;92.00;;;;;;4921434;29;20426;-63
2024/04/06 11:41:45;;;;;;;;;;;23.90;92.90;;;;;;4920197;29;19938;-63
2024/04/06 11:44:11;;;;;;;;;;;24.00;93.10;;;;;;4922996;29;19926;-63
2024/04/06 11:46:39;;;;;;;;;;;24.10;91.40;;;;;;4904869;29;19970;-64
2024/04/06 11:49:05;;;;;;;;;;;24.20;80.20;;;;;;4919649;29;20001;-64
2024/04/06 11:51:31;;;;;;;;;;;24.20;72.40;;;;;;4933466;29;19935;-63
2024/04/06 11:53:57;;;;;;;;;;;24.40;71.70;;;;;;4904667;29;19931;-64
2024/04/06 11:56:22;;;;;;;;;;;24.50;76.40;;;;;;4931049;29;19937;-64
2024/04/06 11:58:50;;;;;;;;;;;24.60;80.90;;;;;;4925617;29;19950;-64
2024/04/06 12:01:16;;;;;;;;;;;24.70;79.70;;;;;;4905672;29;19927;-64
2024/04/06 12:03:42;;;;;;;;;;;24.80;69.30;;;;;;4903766;29;19982;-64
2024/04/06 12:06:11;;;;;;;;;;;24.80;72.40;;;;;;4918932;29;19930;-64
2024/04/06 12:08:37;;;;;;;;;;;24.90;71.80;;;;;;4920006;29;19994;-64
2024/04/06 12:11:03;;;;;;;;;;;24.90;72.30;;;;;;4920227;29;20403;-64
2024/04/06 12:13:29;;;;;;;;;;;24.80;71.00;;;;;;4933785;29;19938;-64
2024/04/06 12:15:55;;;;;;;;;;;24.70;67.90;;;;;;4924554;29;20022;-63
2024/04/06 12:18:21;;;;;;;;;;;24.60;62.90;;;;;;4901973;29;19931;-63
2024/04/06 12:20:46;;;;;;;;;;;24.60;67.10;;;;;;4923024;29;19937;-64
2024/04/06 12:23:12;;;;;;;;;;;24.50;68.10;;;;;;4905374;29;19930;-63
2024/04/06 12:25:40;;;;;;;;;;;24.60;64.10;;;;;;4917453;29;20154;-63
2024/04/06 12:28:06;;;;;;;;;;;24.70;65.30;;;;;;4921053;29;19931;-63
2024/04/06 12:30:32;;;;;;;;;;;24.80;66.80;;;;;;4925255;29;19938;-63
2024/04/06 12:32:58;;;;;;;;;;;24.80;67.00;;;;;;4927938;29;19931;-64
2024/04/06 12:35:24;;;;;;;;;;;24.80;64.80;;;;;;4929919;29;20427;-63
2024/04/06 12:37:50;;;;;;;;;;;24.80;67.50;;;;;;4911632;29;19938;-64
2024/04/06 12:40:17;;;;;;;;;;;24.80;67.00;;;;;;4919312;29;20414;-64
2024/04/06 12:42:43;;;;;;;;;;;24.90;63.40;;;;;;4929858;29;20535;-64
2024/04/06 12:45:09;;;;;;;;;;;25.00;66.00;;;;;;4921561;29;19926;-64
2024/04/06 12:47:35;;;;;;;;;;;25.10;62.10;;;;;;4921414;29;19927;-64
2024/04/06 12:50:01;;;;;;;;;;;25.20;65.40;;;;;;4925448;29;19927;-65
2024/04/06 12:52:27;;;;;;;;;;;25.30;66.00;;;;;;4918578;29;19938;-67
2024/04/06 12:54:53;;;;;;;;;;;25.30;61.10;;;;;;4901064;29;19931;-69
2024/04/06 12:57:39;;;;;;;;;;;25.20;63.50;;;;;;4918349;29;20288;-66
2024/04/06 13:00:06;;;;;;;;;;;25.20;61.10;;;;;;4926942;29;20068;-66
2024/04/06 13:02:36;;;;;;;;;;;25.20;63.00;;;;;;4931073;29;19931;-66
2024/04/06 13:05:02;;;;;;;;;;;25.10;63.50;;;;;;4924125;29;19934;-67
2024/04/06 13:07:28;;;;;;;;;;;25.20;64.00;;;;;;4927598;29;20316;-68
2024/04/06 13:09:55;;;;;;;;;;;25.30;62.60;;;;;;4933327;29;20303;-64
2024/04/06 13:12:30;;;;;;;;;;;25.40;64.50;;;;;;4921931;29;20369;-64
2024/04/06 13:14:59;;;;;;;;;;;25.60;58.50;;;;;;4921618;29;19971;-64
2024/04/06 13:17:25;;;;;;;;;;;25.60;56.10;;;;;;4918970;29;19926;-64
2024/04/06 13:19:52;;;;;;;;;;;25.60;56.60;;;;;;4919430;29;19937;-64
2024/04/06 13:22:18;;;;;;;;;;;25.60;57.40;;;;;;4920102;29;19926;-64
2024/04/06 13:24:44;;;;;;;;;;;25.70;57.10;;;;;;4926848;29;19927;-64
2024/04/06 13:27:10;;;;;;;;;;;25.70;57.20;;;;;;4917819;29;19927;-64
2024/04/06 13:29:36;;;;;;;;;;;25.70;55.60;;;;;;4903727;29;19933;-64
2024/04/06 13:32:04;;;;;;;;;;;25.80;57.70;;;;;;4919032;29;19926;-64
2024/04/06 13:34:30;;;;;;;;;;;25.90;56.60;;;;;;4905095;29;19930;-65
2024/04/06 13:36:56;;;;;;;;;;;25.90;54.30;;;;;;4907879;29;19978;-64
2024/04/06 13:39:22;;;;;;;;;;;25.90;55.00;;;;;;4920189;29;19931;-69
2024/04/06 13:41:48;;;;;;;;;;;25.90;55.00;;;;;;4903639;29;19997;-64
2024/04/06 13:44:14;;;;;;;;;;;25.90;55.90;;;;;;4921055;29;19937;-64
2024/04/06 13:46:40;;;;;;;;;;;25.90;53.60;;;;;;4925317;29;19931;-64
2024/04/06 13:49:09;;;;;;;;;;;26.00;54.10;;;;;;4928472;29;20395;-64
2024/04/06 13:51:39;;;;;;;;;;;26.00;55.30;;;;;;4909063;29;20034;-63
2024/04/06 13:54:05;;;;;;;;;;;26.00;53.90;;;;;;4918720;29;19926;-64
2024/04/06 13:56:34;;;;;;;;;;;26.10;54.20;;;;;;4916088;29;19990;-64
2024/04/06 13:59:00;;;;;;;;;;;26.10;53.00;;;;;;4916535;29;19982;-64
2024/04/06 14:01:26;;;;;;;;;;;26.20;51.90;;;;;;4912625;29;19935;-64
2024/04/06 14:03:52;;;;;;;;;;;26.30;53.00;;;;;;4898327;29;19931;-64
2024/04/06 14:06:18;;;;;;;;;;;26.30;54.50;;;;;;4921359;29;20307;-64
2024/04/06 14:08:44;;;;;;;;;;;26.40;51.00;;;;;;4914510;29;19981;-64
2024/04/06 14:11:10;;;;;;;;;;;26.50;50.90;;;;;;4918084;29;20468;-64